createdAt,value
2019-06-08T00:01:30.002Z,111.45
2019-06-08T00:03:59.301Z,90.10
2019-06-08T00:06:28.462Z,130.72
2019-06-08T00:08:57.687Z,243.82
2019-06-08T00:11:26.896Z,123.05
2019-06-08T00:13:56.106Z,85.30
2019-06-08T00:16:25.365Z,126.95
2019-06-08T00:18:54.662Z,87.70
2019-06-08T00:21:24.219Z,135.40
2019-06-08T00:23:53.479Z,81.75
2019-06-08T00:26:22.677Z,132.03
2019-06-08T00:28:51.894Z,84.00
2019-06-08T00:31:21.694Z,130.72
2019-06-08T00:33:50.950Z,85.42
2019-06-08T00:36:20.890Z,136.35
2019-06-08T00:38:50.593Z,83.95
2019-06-08T00:41:20.699Z,130.90
2019-06-08T00:43:51.181Z,86.45
2019-06-08T00:46:21.478Z,135.48
2019-06-08T00:48:50.615Z,88.70
2019-06-08T00:51:20.982Z,140.55
2019-06-08T00:53:50.272Z,94.60
2019-06-08T00:56:19.751Z,149.55
2019-06-08T00:58:48.911Z,86.35
2019-06-08T01:01:22.047Z,131.37
2019-06-08T01:03:49.267Z,91.17
2019-06-08T01:06:18.821Z,164.22
2019-06-08T01:11:16.526Z,135.00
2019-06-08T01:13:45.682Z,112.15
2019-06-08T01:16:15.002Z,137.37
2019-06-08T01:18:44.282Z,109.03
2019-06-08T01:21:13.547Z,151.53
2019-06-08T01:23:42.726Z,91.50
2019-06-08T01:26:12.830Z,113.83
2019-06-08T01:28:42.199Z,91.10
2019-06-08T01:31:11.349Z,120.50
2019-06-08T01:33:40.538Z,133.22
2019-06-08T01:36:09.810Z,83.05
2019-06-08T01:38:39.106Z,127.32
2019-06-08T01:41:08.284Z,84.22
2019-06-08T01:43:37.445Z,119.82
2019-06-08T01:46:06.648Z,83.90
2019-06-08T01:48:35.935Z,123.85
2019-06-08T01:51:06.795Z,84.65
2019-06-08T01:53:35.960Z,112.40
2019-06-08T01:56:05.349Z,82.33
2019-06-08T01:58:34.654Z,121.42
2019-06-08T02:01:03.769Z,84.40
2019-06-08T02:03:34.673Z,106.58
2019-06-08T02:06:04.326Z,87.35
2019-06-08T02:08:34.702Z,109.32
2019-06-08T02:11:04.323Z,83.65
2019-06-08T02:16:02.394Z,85.50
2019-06-08T02:18:41.845Z,198.72
2019-06-08T02:21:02.461Z,88.52
2019-06-08T02:23:33.028Z,111.17
2019-06-08T02:26:02.277Z,85.07
2019-06-08T02:28:31.898Z,99.85
2019-06-08T02:31:01.161Z,85.38
2019-06-08T02:33:30.813Z,102.00
2019-06-08T02:36:01.403Z,87.15
2019-06-08T02:38:32.239Z,105.12
2019-06-08T02:41:01.534Z,276.70
2019-06-08T02:43:30.919Z,279.60
2019-06-08T02:46:00.134Z,276.95
2019-06-08T02:48:30.023Z,272.73
2019-06-08T02:51:00.531Z,255.90
2019-06-08T02:56:00.294Z,268.17
2019-06-08T02:58:31.113Z,266.27
2019-06-08T03:01:00.501Z,266.68
2019-06-08T03:03:31.720Z,261.73
2019-06-08T03:06:03.278Z,294.07
2019-06-08T03:08:39.103Z,289.15
2019-06-08T03:11:08.098Z,273.57
2019-06-08T03:13:39.494Z,290.38
2019-06-08T03:16:08.184Z,290.98
2019-06-08T03:18:38.284Z,304.38
2019-06-08T03:21:08.461Z,289.70
2019-06-08T03:23:38.753Z,339.82
2019-06-08T03:26:08.623Z,313.77
2019-06-08T03:28:39.960Z,358.20
2019-06-08T03:31:08.810Z,308.75
2019-06-08T03:33:45.771Z,332.12
2019-06-08T03:36:09.186Z,300.35
2019-06-08T03:38:40.206Z,348.35
2019-06-08T03:41:09.648Z,300.95
2019-06-08T03:43:40.825Z,322.35
2019-06-08T03:46:11.021Z,308.77
2019-06-08T03:51:10.349Z,313.65
2019-06-08T03:53:40.529Z,343.95
2019-06-08T03:56:10.864Z,287.42
2019-06-08T03:58:40.608Z,315.55
2019-06-08T04:01:11.290Z,292.90
2019-06-08T04:06:10.592Z,285.68
2019-06-08T04:08:40.915Z,329.23
2019-06-08T04:11:10.686Z,288.23
2019-06-08T04:13:42.006Z,330.60
2019-06-08T04:16:11.371Z,286.98
2019-06-08T04:18:42.017Z,308.60
2019-06-08T04:21:11.281Z,286.75
2019-06-08T04:23:42.624Z,314.35
2019-06-08T04:26:11.762Z,289.70
2019-06-08T04:28:42.473Z,315.48
2019-06-08T04:31:11.798Z,289.55
2019-06-08T04:33:42.082Z,319.02
2019-06-08T04:36:11.303Z,286.62
2019-06-08T04:38:41.312Z,319.23
2019-06-08T04:41:10.931Z,298.38
2019-06-08T04:43:42.834Z,315.45
2019-06-08T04:46:11.981Z,293.82
2019-06-08T04:48:42.858Z,317.35
2019-06-08T04:51:13.216Z,296.27
2019-06-08T04:53:43.187Z,317.02
2019-06-08T04:56:13.437Z,295.88
2019-06-08T04:58:45.989Z,315.45
2019-06-08T05:01:13.537Z,299.55
2019-06-08T05:03:43.356Z,317.52
2019-06-08T05:06:13.151Z,299.42
2019-06-08T05:08:43.151Z,318.25
2019-06-08T05:11:12.498Z,302.07
2019-06-08T05:13:43.191Z,330.62
2019-06-08T05:16:12.663Z,306.98
2019-06-08T05:18:43.110Z,332.45
2019-06-08T05:21:12.406Z,302.38
2019-06-08T05:23:41.607Z,326.20
2019-06-08T05:26:10.775Z,307.12
2019-06-08T05:28:41.053Z,336.98
2019-06-08T05:31:10.537Z,369.27
2019-06-08T05:33:39.710Z,403.77
2019-06-08T05:36:08.929Z,367.48
2019-06-08T05:38:39.393Z,366.93
2019-06-08T05:41:08.714Z,347.67
2019-06-08T05:43:37.887Z,139.88
2019-06-08T05:46:07.081Z,92.42
2019-06-08T05:48:36.341Z,141.20
2019-06-08T05:51:05.499Z,105.45
2019-06-08T05:53:35.474Z,137.32
2019-06-08T05:56:04.805Z,142.75
2019-06-08T05:58:34.004Z,138.95
2019-06-08T06:01:03.179Z,115.42
2019-06-08T06:03:32.342Z,137.82
2019-06-08T06:06:01.552Z,102.67
2019-06-08T06:08:30.766Z,128.47
2019-06-08T06:10:59.987Z,113.95
2019-06-08T06:13:29.150Z,128.18
2019-06-08T06:15:58.427Z,113.62
2019-06-08T06:18:27.605Z,128.25
2019-06-08T06:21:09.863Z,113.22
2019-06-08T06:23:27.744Z,110.57
2019-06-08T06:25:56.995Z,105.95
2019-06-08T06:28:26.168Z,127.50
2019-06-08T06:30:55.470Z,127.90
2019-06-08T06:33:24.607Z,126.82
2019-06-08T06:35:53.840Z,113.85
2019-06-08T06:38:23.038Z,125.40
2019-06-08T06:40:52.657Z,124.55
2019-06-08T06:43:22.840Z,120.80
2019-06-08T06:45:52.295Z,133.15
2019-06-08T06:48:23.547Z,133.97
2019-06-08T06:50:52.631Z,145.28
2019-06-08T06:53:21.840Z,197.82
2019-06-08T06:55:51.067Z,152.60
2019-06-08T06:58:20.334Z,122.37
2019-06-08T07:00:49.551Z,145.68
2019-06-08T07:03:18.780Z,131.03
2019-06-08T07:05:48.013Z,104.47
2019-06-08T07:08:17.258Z,146.07
2019-06-08T07:10:46.639Z,159.65
2019-06-08T07:13:16.812Z,161.47
2019-06-08T07:15:47.311Z,151.27
2019-06-08T07:18:17.133Z,130.52
2019-06-08T07:20:48.128Z,232.27
2019-06-08T07:23:17.326Z,288.60
2019-06-08T07:25:46.568Z,93.85
2019-06-08T07:28:15.748Z,107.17
2019-06-08T07:30:45.011Z,87.80
2019-06-08T07:33:14.171Z,126.00
2019-06-08T07:35:43.350Z,89.58
2019-06-08T07:38:12.562Z,123.28
2019-06-08T07:40:41.899Z,92.27
2019-06-08T07:43:13.101Z,130.78
2019-06-08T07:45:42.746Z,99.72
2019-06-08T07:48:11.913Z,147.55
2019-06-08T07:50:41.148Z,100.42
2019-06-08T07:53:10.331Z,147.47
2019-06-08T07:55:39.566Z,200.97
2019-06-08T07:58:08.882Z,246.60
2019-06-08T08:00:38.061Z,106.87
2019-06-08T08:03:10.244Z,176.30
2019-06-08T08:05:39.878Z,224.62
2019-06-08T08:10:37.491Z,81.78
2019-06-08T08:13:06.726Z,145.97
2019-06-08T08:15:36.040Z,82.30
2019-06-08T08:18:05.606Z,137.18
2019-06-08T08:20:34.775Z,87.33
2019-06-08T08:23:06.205Z,136.88
2019-06-08T08:25:34.929Z,86.75
2019-06-08T08:28:04.093Z,132.15
2019-06-08T08:30:33.280Z,85.77
2019-06-08T08:33:03.366Z,137.00
2019-06-08T08:35:32.768Z,88.55
2019-06-08T08:38:04.411Z,130.67
2019-06-08T08:40:32.858Z,89.15
2019-06-08T08:43:02.027Z,132.20
2019-06-08T08:45:31.283Z,87.50
2019-06-08T08:48:21.170Z,139.77
2019-06-08T08:50:31.367Z,91.45
2019-06-08T08:53:02.225Z,135.35
2019-06-08T08:55:31.600Z,89.25
2019-06-08T08:58:02.167Z,132.32
2019-06-08T09:00:31.447Z,91.95
2019-06-08T09:03:21.964Z,129.18
2019-06-08T09:05:31.774Z,86.17
2019-06-08T09:08:02.609Z,134.20
2019-06-08T09:10:31.823Z,88.47
2019-06-08T09:13:04.211Z,136.45
2019-06-08T09:15:32.236Z,89.72
2019-06-08T09:18:03.705Z,130.50
2019-06-08T09:20:32.353Z,92.40
2019-06-08T09:23:11.728Z,133.30
2019-06-08T09:25:32.481Z,91.32
2019-06-08T09:28:04.659Z,143.37
2019-06-08T09:30:32.646Z,92.08
2019-06-08T09:33:02.906Z,134.07
2019-06-08T09:35:32.696Z,83.78
2019-06-08T09:38:04.796Z,132.47
2019-06-08T09:40:32.817Z,93.33
2019-06-08T09:43:09.178Z,138.07
2019-06-08T09:45:34.942Z,86.42
2019-06-08T09:48:05.766Z,139.10
2019-06-08T09:50:38.453Z,105.60
2019-06-08T09:53:23.196Z,98.33
2019-06-08T09:55:41.296Z,114.80
2019-06-08T09:58:11.720Z,100.07
2019-06-08T10:00:40.305Z,126.05
2019-06-08T10:03:09.794Z,106.00
2019-06-08T10:05:39.175Z,139.88
2019-06-08T10:08:09.541Z,105.67
2019-06-08T10:10:38.917Z,145.00
2019-06-08T10:13:09.661Z,106.40
2019-06-08T10:15:39.001Z,127.75
2019-06-08T10:18:08.585Z,98.50
2019-06-08T10:20:38.618Z,130.32
2019-06-08T10:23:24.402Z,106.05
2019-06-08T10:25:38.785Z,137.88
2019-06-08T10:28:14.056Z,116.47
2019-06-08T10:30:39.562Z,145.15
2019-06-08T10:33:10.080Z,100.92
2019-06-08T10:35:40.427Z,131.75
2019-06-08T10:38:12.002Z,157.20
2019-06-08T10:41:04.833Z,105.83
2019-06-08T10:43:29.464Z,147.83
2019-06-08T10:46:03.070Z,114.40
2019-06-08T10:48:30.707Z,132.65
2019-06-08T10:51:03.404Z,100.10
2019-06-08T10:53:45.183Z,132.10
2019-06-08T10:56:03.446Z,94.62
2019-06-08T10:58:33.675Z,123.00
2019-06-08T11:01:10.205Z,101.55
2019-06-08T11:03:38.680Z,121.10
2019-06-08T11:06:11.322Z,107.60
2019-06-08T11:08:39.010Z,104.85
2019-06-08T11:11:11.742Z,118.67
2019-06-08T11:13:40.112Z,103.45
2019-06-08T11:16:12.719Z,120.05
2019-06-08T11:18:41.756Z,104.55
2019-06-08T11:21:12.844Z,122.90
2019-06-08T11:23:42.853Z,106.63
2019-06-08T11:26:19.843Z,133.80
2019-06-08T11:28:43.283Z,115.05
2019-06-08T11:31:15.886Z,156.40
2019-06-08T11:33:45.276Z,112.17
2019-06-08T11:36:15.096Z,147.93
2019-06-08T11:38:44.243Z,100.27
2019-06-08T11:41:13.852Z,130.35
2019-06-08T11:46:11.821Z,139.82
2019-06-08T11:48:41.690Z,108.87
2019-06-08T11:51:13.044Z,121.20
2019-06-08T11:53:42.247Z,99.15
2019-06-08T11:56:13.403Z,123.45
2019-06-08T11:58:43.578Z,102.90
2019-06-08T12:01:14.739Z,118.00
2019-06-08T12:03:43.620Z,105.87
2019-06-08T12:06:14.392Z,113.40
2019-06-08T12:08:43.773Z,107.40
2019-06-08T12:11:18.765Z,119.80
2019-06-08T12:13:43.916Z,109.12
2019-06-08T12:16:15.699Z,119.75
2019-06-08T12:18:44.072Z,112.17
2019-06-08T12:21:14.568Z,124.87
2019-06-08T12:23:43.851Z,117.75
2019-06-08T12:26:14.385Z,138.30
2019-06-08T12:28:44.128Z,119.82
2019-06-08T12:34:15.529Z,121.50
2019-06-08T12:36:45.211Z,119.60
2019-06-08T12:39:14.366Z,126.18
2019-06-08T12:41:43.768Z,107.37
2019-06-08T12:44:15.552Z,113.88
2019-06-08T12:46:44.921Z,112.50
2019-06-08T12:49:14.676Z,129.18
2019-06-08T12:51:44.919Z,117.57
2019-06-08T12:54:14.467Z,123.05
2019-06-08T12:56:43.627Z,117.03
2019-06-08T12:59:16.454Z,145.82
2019-06-08T13:01:44.135Z,147.55
2019-06-08T13:04:13.811Z,153.78
2019-06-08T13:06:43.052Z,103.40
2019-06-08T13:09:13.458Z,107.92
2019-06-08T13:11:43.250Z,124.87
2019-06-08T13:14:12.976Z,119.17
2019-06-08T13:16:42.535Z,116.70
2019-06-08T13:19:13.112Z,110.25
2019-06-08T13:21:42.654Z,115.25
2019-06-08T13:24:33.312Z,108.35
2019-06-08T13:27:02.869Z,118.50
2019-06-08T13:29:32.064Z,164.28
2019-06-08T13:32:01.538Z,226.73
2019-06-08T13:34:30.942Z,137.97
2019-06-08T13:37:00.189Z,111.32
2019-06-08T13:39:29.378Z,119.60
2019-06-08T13:41:58.621Z,160.85
2019-06-08T13:44:28.092Z,116.88
2019-06-08T13:49:30.565Z,110.32
2019-06-08T13:51:58.500Z,166.62
2019-06-08T13:56:59.174Z,153.27
2019-06-08T13:59:30.799Z,135.37
2019-06-08T14:01:59.668Z,176.25
2019-06-08T14:04:29.059Z,113.62
2019-06-08T14:06:58.569Z,142.40
2019-06-08T14:09:31.522Z,106.63
2019-06-08T14:11:59.087Z,139.15
2019-06-08T14:14:29.307Z,104.00
2019-06-08T14:16:59.000Z,164.52
2019-06-08T14:24:48.021Z,131.90
2019-06-08T14:27:17.205Z,92.17
2019-06-08T14:29:48.480Z,123.33
2019-06-08T14:32:19.106Z,99.65
2019-06-08T14:34:50.189Z,116.47
2019-06-08T14:37:20.027Z,95.72
2019-06-08T14:42:23.526Z,114.25
2019-06-08T14:44:48.985Z,85.32
2019-06-08T14:47:18.747Z,111.52
2019-06-08T14:49:49.471Z,90.60
2019-06-08T14:52:20.442Z,120.87
2019-06-08T14:54:51.282Z,94.20
2019-06-08T14:57:23.291Z,114.67
2019-06-08T14:59:56.039Z,95.83
2019-06-08T15:02:26.168Z,113.60
2019-06-08T15:04:56.518Z,124.90
2019-06-08T15:07:29.145Z,99.20
2019-06-08T15:09:58.180Z,123.62
2019-06-08T15:12:28.558Z,105.63
2019-06-08T15:14:59.056Z,145.07
2019-06-08T15:17:30.841Z,92.17
2019-06-08T15:19:59.307Z,131.32
2019-06-08T15:22:30.043Z,95.62
2019-06-08T15:24:59.467Z,132.25
2019-06-08T15:27:31.985Z,99.00
2019-06-08T15:30:00.908Z,137.95
2019-06-08T15:32:33.662Z,108.30
2019-06-08T15:35:01.047Z,142.07
2019-06-08T15:37:33.364Z,105.83
2019-06-08T15:40:03.023Z,150.15
2019-06-08T15:45:02.683Z,155.35
2019-06-08T15:47:32.476Z,110.22
2019-06-08T15:50:01.615Z,191.05
2019-06-08T15:52:33.003Z,118.15
2019-06-08T15:55:02.210Z,158.85
2019-06-08T15:57:37.557Z,124.58
2019-06-08T16:00:02.530Z,163.55
2019-06-08T16:02:31.782Z,116.50
2019-06-08T16:05:00.969Z,144.95
2019-06-08T16:07:31.296Z,102.67
2019-06-08T16:10:01.085Z,121.30
2019-06-08T16:12:30.664Z,110.12
2019-06-08T16:17:29.250Z,106.58
2019-06-08T16:19:58.465Z,139.18
2019-06-08T16:22:27.747Z,123.80
2019-06-08T16:24:56.997Z,154.18
2019-06-08T16:27:26.229Z,133.80
2019-06-08T16:29:55.411Z,180.03
2019-06-08T16:32:24.633Z,128.45
2019-06-08T16:34:53.801Z,159.85
2019-06-08T16:37:22.995Z,122.20
2019-06-08T16:39:52.232Z,161.07
2019-06-08T16:42:21.400Z,117.57
2019-06-08T16:44:50.629Z,180.42
2019-06-08T16:47:19.816Z,102.90
2019-06-08T16:49:48.982Z,142.98
2019-06-08T16:52:18.370Z,100.00
2019-06-08T16:54:47.557Z,157.00
2019-06-08T16:57:16.816Z,106.20
2019-06-08T16:59:46.004Z,154.50
2019-06-08T17:02:16.960Z,105.10
2019-06-08T17:04:46.174Z,145.68
2019-06-08T17:07:15.346Z,93.27
2019-06-08T17:09:45.431Z,125.60
2019-06-08T17:12:14.653Z,97.33
2019-06-08T17:14:43.854Z,140.43
2019-06-08T17:17:13.089Z,93.07
2019-06-08T17:19:42.551Z,145.60
2019-06-08T17:22:11.836Z,111.28
2019-06-08T17:24:41.058Z,150.45
2019-06-08T17:27:26.029Z,107.20
2019-06-08T17:29:41.220Z,135.10
2019-06-08T17:32:10.417Z,115.90
2019-06-08T17:34:40.226Z,145.75
2019-06-08T17:37:09.728Z,125.50
2019-06-08T17:39:40.040Z,147.70
2019-06-08T17:42:09.309Z,137.18
2019-06-08T17:44:38.594Z,164.60
2019-06-08T17:47:07.848Z,167.75
2019-06-08T17:49:37.045Z,173.22
2019-06-08T17:52:06.283Z,212.12
2019-06-08T17:54:36.690Z,319.23
2019-06-08T17:57:05.907Z,106.67
2019-06-08T17:59:35.362Z,100.25
2019-06-08T18:02:07.270Z,106.03
2019-06-08T18:04:38.095Z,102.55
2019-06-08T18:07:07.460Z,98.95
2019-06-08T18:09:39.257Z,101.18
2019-06-08T18:12:08.810Z,106.55
2019-06-08T18:14:40.462Z,91.30
2019-06-08T18:17:08.935Z,114.60
2019-06-08T18:19:41.893Z,100.05
2019-06-08T18:22:15.292Z,103.87
2019-06-08T18:24:41.901Z,100.97
2019-06-08T18:27:11.005Z,137.18
2019-06-08T18:29:42.395Z,98.17
2019-06-08T18:32:11.572Z,118.75
2019-06-08T18:34:43.256Z,95.85
2019-06-08T18:37:13.309Z,117.47
2019-06-08T18:39:44.406Z,94.10
2019-06-08T18:42:13.848Z,140.90
2019-06-08T18:44:44.483Z,98.30
2019-06-08T18:47:13.915Z,135.32
2019-06-08T18:49:44.196Z,102.40
2019-06-08T18:52:13.689Z,130.40
2019-06-08T18:54:44.182Z,112.42
2019-06-08T18:57:13.545Z,131.40
2019-06-08T18:59:46.599Z,97.12
2019-06-08T19:02:13.850Z,145.47
2019-06-08T19:04:43.145Z,97.55
2019-06-08T19:07:12.467Z,119.47
2019-06-08T19:09:43.735Z,90.00
2019-06-08T19:12:12.980Z,115.52
2019-06-08T19:14:43.532Z,93.65
2019-06-08T19:17:12.844Z,116.70
2019-06-08T19:19:45.803Z,93.33
2019-06-08T19:22:13.534Z,136.77
2019-06-08T19:24:44.827Z,91.82
2019-06-08T19:27:13.886Z,119.02
2019-06-08T19:29:44.184Z,90.53
2019-06-08T19:32:14.381Z,125.27
2019-06-08T19:34:45.151Z,92.90
2019-06-08T19:37:14.533Z,134.12
2019-06-08T19:39:45.954Z,91.97
2019-06-08T19:42:14.911Z,142.25
2019-06-08T19:44:54.168Z,94.70
2019-06-08T19:47:17.261Z,152.55
2019-06-08T19:49:47.751Z,94.52
2019-06-08T19:52:18.308Z,130.22
2019-06-08T19:54:52.485Z,101.00
2019-06-08T19:57:18.550Z,120.72
2019-06-08T19:59:47.828Z,91.35
2019-06-08T20:02:17.736Z,144.90
2019-06-08T20:04:46.964Z,94.22
2019-06-08T20:07:17.494Z,127.65
2019-06-08T20:09:48.179Z,94.42
2019-06-08T20:12:18.616Z,132.80
2019-06-08T20:14:49.387Z,109.65
2019-06-08T20:17:19.487Z,149.80
2019-06-08T20:22:18.948Z,164.18
2019-06-08T20:24:52.076Z,102.72
2019-06-08T20:27:19.303Z,139.05
2019-06-08T20:29:50.926Z,89.40
2019-06-08T20:32:19.635Z,140.92
2019-06-08T20:34:50.533Z,93.07
2019-06-08T20:37:19.740Z,126.78
2019-06-08T20:40:04.442Z,99.47
2019-06-08T20:42:19.922Z,128.90
2019-06-08T20:44:51.580Z,94.40
2019-06-08T20:47:20.687Z,120.25
2019-06-08T20:49:51.850Z,102.15
2019-06-08T20:52:21.243Z,123.80
2019-06-08T20:54:50.874Z,96.15
2019-06-08T20:57:21.495Z,131.55
2019-06-08T20:59:53.460Z,95.10
2019-06-08T21:02:21.669Z,114.67
2019-06-08T21:04:54.074Z,93.47
2019-06-08T21:07:22.157Z,120.40
2019-06-08T21:09:53.451Z,99.25
2019-06-08T21:12:22.968Z,115.42
2019-06-08T21:17:22.362Z,122.10
2019-06-08T21:19:53.023Z,91.92
2019-06-08T21:22:22.443Z,121.35
2019-06-08T21:24:53.691Z,94.77
2019-06-08T21:27:23.269Z,142.15
2019-06-08T21:29:59.759Z,102.35
2019-06-08T21:32:23.942Z,136.32
2019-06-08T21:34:55.277Z,114.15
2019-06-08T21:37:24.920Z,127.55
2019-06-08T21:39:56.978Z,93.25
2019-06-08T21:42:27.661Z,119.33
2019-06-08T21:44:59.933Z,99.95
2019-06-08T21:47:28.477Z,144.43
2019-06-08T21:50:00.340Z,94.90
2019-06-08T21:52:29.430Z,139.82
2019-06-08T21:55:00.696Z,93.30
2019-06-08T21:57:30.224Z,142.75
2019-06-08T22:00:21.907Z,96.53
2019-06-08T22:02:32.605Z,165.75
2019-06-08T22:05:04.858Z,104.35
2019-06-08T22:07:37.737Z,183.07
2019-06-08T22:10:09.798Z,107.60
2019-06-08T22:12:40.401Z,115.52
2019-06-08T22:15:11.020Z,129.78
2019-06-08T22:17:41.203Z,101.02
2019-06-08T22:20:10.563Z,124.87
2019-06-08T22:22:40.088Z,118.53
2019-06-08T22:25:09.524Z,106.43
2019-06-08T22:27:39.352Z,99.90
2019-06-08T22:30:15.547Z,114.12
2019-06-08T22:32:40.755Z,104.67
2019-06-08T22:37:41.231Z,106.55
2019-06-08T22:40:10.894Z,105.12
2019-06-08T22:42:41.795Z,99.45
2019-06-08T22:45:11.422Z,112.80
2019-06-08T22:47:40.696Z,110.10
2019-06-08T22:50:10.275Z,125.72
2019-06-08T22:52:40.128Z,113.80
2019-06-08T22:55:11.172Z,125.55
2019-06-08T22:57:40.464Z,116.85
2019-06-08T23:00:16.617Z,103.00
2019-06-08T23:02:42.380Z,105.20
2019-06-08T23:05:13.152Z,101.95
2019-06-08T23:07:42.597Z,113.90
2019-06-08T23:10:17.367Z,107.07
2019-06-08T23:12:48.186Z,141.00
2019-06-08T23:15:18.348Z,105.85
2019-06-08T23:17:49.576Z,135.15
2019-06-08T23:20:20.691Z,99.45
2019-06-08T23:22:49.991Z,133.35
2019-06-08T23:25:19.111Z,102.87
2019-06-08T23:27:48.504Z,141.47
2019-06-08T23:30:19.410Z,129.42
2019-06-08T23:32:48.793Z,158.82
2019-06-08T23:35:20.046Z,111.97
2019-06-08T23:37:50.718Z,140.88
2019-06-08T23:40:20.278Z,157.15
2019-06-08T23:42:49.516Z,115.45
2019-06-08T23:45:20.182Z,169.35
2019-06-08T23:47:49.420Z,119.05
2019-06-08T23:50:18.927Z,209.70
2019-06-08T23:52:48.105Z,211.75
2019-06-08T23:55:20.270Z,164.93
2019-06-08T23:57:49.452Z,112.92
